Time;durP1;ratioP1;P1;durP2;ratioP2;P2;SDS_P1;SDS_P2;PMS_P1;PMS_P2;Temp;Humidity;BMP_temperature;BMP_pressure;BME280_temperature;BME280_humidity;BME280_pressure;Samples;Min_cycle;Max_cycle;Signal;HPM_P1;HPM_P2
2022/04/03 00:00:34;;;;;;;11.33;3.73;;;;;;;4.76;39.52;99969.81;4924652;28;101668;-89
2022/04/03 00:03:04;;;;;;;16.17;4.33;;;;;;;4.67;39.84;99962.16;4919648;28;101514;-88
2022/04/03 00:05:33;;;;;;;12.00;4.23;;;;;;;4.45;39.63;99937.34;4902796;28;96750;-90
2022/04/03 00:07:59;;;;;;;8.53;3.43;;;;;;;4.56;39.70;99945.84;4926803;28;96838;-89
2022/04/03 00:10:24;;;;;;;9.07;3.73;;;;;;;4.14;39.79;99879.81;4908530;28;101176;-89
2022/04/03 00:12:50;;;;;;;8.53;4.27;;;;;;;4.64;39.38;99958.75;4919396;28;100326;-89
2022/04/03 00:15:16;;;;;;;7.67;4.03;;;;;;;4.68;39.52;99969.09;4918819;28;97310;-87
2022/04/03 00:17:43;;;;;;;11.00;3.77;;;;;;;4.40;39.48;99919.25;4935683;28;96829;-89
2022/04/03 00:20:10;;;;;;;5.23;2.73;;;;;;;4.71;39.36;99960.34;4899535;28;101894;-88
2022/04/03 00:22:35;;;;;;;10.43;4.07;;;;;;;4.58;39.83;99951.91;4918867;28;98724;-89
2022/04/03 00:25:01;;;;;;;11.83;3.60;;;;;;;4.55;39.62;99957.16;4921674;28;97929;-89
2022/04/03 00:27:27;;;;;;;12.83;4.23;;;;;;;4.44;39.56;99949.50;4919437;28;96919;-89
2022/04/03 00:29:53;;;;;;;8.97;3.70;;;;;;;4.30;39.82;99922.84;4915240;28;102217;-90
2022/04/03 00:32:19;;;;;;;10.37;4.10;;;;;;;4.54;39.64;99947.66;4916938;28;99443;-88
2022/04/03 00:34:46;;;;;;;8.13;3.93;;;;;;;4.19;40.18;99910.03;4934327;28;97774;-89
2022/04/03 00:37:11;;;;;;;9.87;3.30;;;;;;;4.53;39.83;99970.16;4934973;28;96857;-89
2022/04/03 00:39:37;;;;;;;11.03;3.07;;;;;;;4.46;39.71;99942.56;4914983;28;101522;-89
2022/04/03 00:42:08;;;;;;;8.93;3.27;;;;;;;4.50;39.95;99962.41;4923593;28;101514;-88
2022/04/03 00:44:35;;;;;;;7.40;3.40;;;;;;;4.44;39.80;99956.44;4918552;28;97926;-89
2022/04/03 00:47:01;;;;;;;7.47;3.40;;;;;;;4.48;40.27;99976.31;4934801;28;96894;-89
2022/04/03 00:49:28;;;;;;;8.77;3.20;;;;;;;4.48;40.23;99965.91;4934358;28;99978;-89
2022/04/03 00:51:53;;;;;;;7.43;2.97;;;;;;;4.16;40.04;99924.78;4918644;28;100336;-89
2022/04/03 00:54:19;;;;;;;6.70;2.90;;;;;;;4.41;40.36;99972.09;4918437;28;96732;-89
2022/04/03 00:56:45;;;;;;;5.47;2.60;;;;;;;4.14;40.37;99932.63;4915417;28;96813;-89
2022/04/03 00:59:14;;;;;;;7.13;2.90;;;;;;;4.40;40.44;99973.84;4949362;28;101084;-89
2022/04/03 01:01:41;;;;;;;7.57;2.80;;;;;;;4.12;40.38;99938.72;4915242;28;101430;-89
2022/04/03 01:04:07;;;;;;;4.93;2.50;;;;;;;4.25;40.26;99954.13;4918582;28;96949;-89
2022/04/03 01:06:34;;;;;;;6.37;2.87;;;;;;;4.26;41.03;99967.97;4918562;28;96940;-89
2022/04/03 01:09:00;;;;;;;7.10;3.00;;;;;;;4.20;40.62;99962.84;4917944;28;101190;-89
2022/04/03 01:11:26;;;;;;;6.23;2.60;;;;;;;4.19;41.04;99985.38;4918439;28;100633;-89
2022/04/03 01:13:53;;;;;;;7.50;3.10;;;;;;;4.04;41.04;99965.66;4939293;28;96813;-89
2022/04/03 01:16:18;;;;;;;8.87;3.40;;;;;;;4.18;40.95;99986.25;4928176;28;96717;-88
2022/04/03 01:18:44;;;;;;;7.07;3.17;;;;;;;3.68;41.44;99924.56;4917625;28;98125;-89
2022/04/03 01:21:10;;;;;;;5.10;2.47;;;;;;;4.08;41.11;99982.91;4921472;28;101043;-90
2022/04/03 01:23:36;;;;;;;5.70;3.00;;;;;;;3.93;41.24;99954.56;4901477;28;97654;-89
2022/04/03 01:26:02;;;;;;;7.53;2.60;;;;;;;3.94;41.26;99948.47;4923619;28;96741;-89
2022/04/03 01:28:27;;;;;;;8.13;2.60;;;;;;;4.13;41.21;99988.06;4908233;28;101181;-89
2022/04/03 01:30:53;;;;;;;5.10;2.53;;;;;;;4.14;41.20;99992.38;4924169;28;100866;-89
2022/04/03 01:33:18;;;;;;;6.60;2.73;;;;;;;3.64;41.36;99921.16;4918917;28;98765;-89
2022/04/03 01:35:44;;;;;;;5.70;3.23;;;;;;;3.78;41.46;99947.81;4930798;28;96946;-89
2022/04/03 01:38:10;;;;;;;6.27;3.03;;;;;;;3.97;41.69;99981.34;4918130;28;100548;-90
2022/04/03 01:40:36;;;;;;;5.30;2.73;;;;;;;4.06;41.80;99997.66;4941342;28;97641;-89
2022/04/03 01:43:06;;;;;;;7.33;2.70;;;;;;;3.82;41.61;99959.03;4921843;28;96724;-89
2022/04/03 01:45:33;;;;;;;7.87;2.80;;;;;;;3.97;41.54;99994.31;4933562;28;96853;-89
2022/04/03 01:47:59;;;;;;;6.83;3.10;;;;;;;3.99;42.08;99997.78;4901356;28;101297;-88
2022/04/03 01:50:26;;;;;;;5.50;2.97;;;;;;;3.88;41.93;99981.47;4909130;28;101242;-89
2022/04/03 01:52:52;;;;;;;7.93;3.40;;;;;;;3.73;41.37;99953.94;4901640;28;97022;-89
2022/04/03 01:55:18;;;;;;;4.77;2.77;;;;;;;4.01;41.77;99996.84;4933740;28;97105;-89
2022/04/03 01:57:43;;;;;;;8.17;2.80;;;;;;;3.99;41.59;100005.56;4917729;28;100774;-89
2022/04/03 02:00:12;;;;;;;8.23;3.23;;;;;;;3.95;41.71;100007.31;4917859;28;101396;-89
2022/04/03 02:02:39;;;;;;;7.60;3.10;;;;;;;3.54;41.69;99941.16;4930119;28;97051;-89
2022/04/03 02:05:05;;;;;;;8.87;3.57;;;;;;;3.83;42.36;100005.72;4934406;28;96829;-89
2022/04/03 02:07:32;;;;;;;7.57;3.33;;;;;;;3.84;42.20;100009.22;4950326;28;101397;-90
2022/04/03 02:09:59;;;;;;;7.90;3.23;;;;;;;3.75;41.99;99991.09;4917881;28;100930;-89
2022/04/03 02:12:25;;;;;;;5.43;2.70;;;;;;;3.47;42.39;99957.69;4950142;28;97149;-89
2022/04/03 02:14:51;;;;;;;8.87;3.17;;;;;;;3.82;42.22;100010.94;4917899;28;97368;-89
2022/04/03 02:17:17;;;;;;;7.93;3.60;;;;;;;3.55;42.19;99981.81;4919558;28;101791;-89
2022/04/03 02:19:43;;;;;;;8.10;3.47;;;;;;;3.70;42.50;100005.91;4917296;28;97440;-89
2022/04/03 02:22:09;;;;;;;9.00;2.93;;;;;;;3.63;42.38;100015.47;4933822;28;97030;-89
2022/04/03 02:24:34;;;;;;;7.23;3.10;;;;;;;3.20;42.89;99948.47;4914734;28;97517;-88
2022/04/03 02:27:00;;;;;;;8.77;3.37;;;;;;;3.32;42.85;99966.50;4919365;28;98577;-89
2022/04/03 02:29:26;;;;;;;7.03;3.20;;;;;;;3.30;42.65;99969.97;4902403;28;99710;-89
2022/04/03 02:31:51;;;;;;;7.07;3.03;;;;;;;3.29;42.30;99963.09;4921777;28;96738;-89
2022/04/03 02:34:17;;;;;;;7.63;3.13;;;;;;;3.52;42.62;100010.41;4926228;28;96812;-89
2022/04/03 02:36:43;;;;;;;6.97;3.27;;;;;;;3.47;43.04;99998.34;4917485;28;100258;-89
2022/04/03 02:39:12;;;;;;;6.97;3.30;;;;;;;3.60;42.92;100021.56;4913515;28;101255;-89
2022/04/03 02:41:38;;;;;;;6.47;3.27;;;;;;;3.49;43.06;100001.78;4922378;28;96965;-92
2022/04/03 02:44:04;;;;;;;7.00;3.13;;;;;;;3.57;42.64;100016.38;4925445;28;96948;-89
2022/04/03 02:46:30;;;;;;;6.77;3.33;;;;;;;3.60;42.83;100028.47;4936662;28;97502;-89
2022/04/03 02:48:56;;;;;;;7.97;3.20;;;;;;;3.34;43.10;99995.00;4904105;28;101030;-88
2022/04/03 02:51:22;;;;;;;7.43;3.70;;;;;;;3.45;42.86;100013.94;4936961;28;96886;-89
2022/04/03 02:53:47;;;;;;;6.83;3.07;;;;;;;3.53;43.09;100030.28;4920353;28;96773;-89
2022/04/03 02:56:13;;;;;;;6.47;3.13;;;;;;;3.46;43.08;100026.06;4920754;28;97869;-89
2022/04/03 02:58:40;;;;;;;5.57;3.00;;;;;;;3.45;42.94;100028.66;4952540;28;101020;-92
2022/04/03 03:01:06;;;;;;;7.37;3.07;;;;;;;3.43;42.97;100030.38;4926337;28;97876;-89
2022/04/03 03:03:32;;;;;;;7.17;3.40;;;;;;;3.35;43.12;100017.50;4936443;28;97229;-89
2022/04/03 03:05:58;;;;;;;7.53;3.20;;;;;;;3.19;43.16;99985.63;4920298;28;100044;-88
2022/04/03 03:08:23;;;;;;;11.27;3.60;;;;;;;3.43;43.47;100036.44;4920417;28;96786;-90
2022/04/03 03:10:50;;;;;;;5.40;3.40;;;;;;;3.52;43.13;100056.25;4926241;28;97138;-89
2022/04/03 03:13:16;;;;;;;7.73;3.70;;;;;;;3.22;43.47;100003.75;4920356;28;96798;-89
2022/04/03 03:15:42;;;;;;;7.27;3.27;;;;;;;3.45;43.45;100052.84;4946112;28;100996;-89
2022/04/03 03:18:08;;;;;;;5.83;3.13;;;;;;;3.39;43.56;100053.78;4921134;28;101592;-90
2022/04/03 03:20:34;;;;;;;5.30;3.20;;;;;;;3.29;43.72;100033.13;4919662;28;96780;-89
2022/04/03 03:23:00;;;;;;;7.57;2.93;;;;;;;3.27;43.74;100040.06;4919995;28;96937;-90
2022/04/03 03:25:27;;;;;;;5.90;2.77;;;;;;;3.34;43.70;100058.13;4935943;28;101163;-89
2022/04/03 03:27:52;;;;;;;11.17;3.53;;;;;;;3.32;44.17;100057.31;4903680;28;101294;-89
2022/04/03 03:30:18;;;;;;;7.90;3.10;;;;;;;3.35;44.37;100059.00;4904282;28;96667;-89
2022/04/03 03:32:44;;;;;;;7.97;3.10;;;;;;;2.94;44.67;100006.59;4921306;28;96894;-89
2022/04/03 03:35:10;;;;;;;12.37;4.00;;;;;;;3.05;44.40;100028.97;4916278;28;101357;-89
2022/04/03 03:37:37;;;;;;;9.93;4.37;;;;;;;3.24;45.08;100069.47;4918879;28;100676;-91
2022/04/03 03:40:04;;;;;;;6.97;3.50;;;;;;;3.16;44.66;100047.91;4916842;28;97060;-89
2022/04/03 03:42:29;;;;;;;7.00;3.37;;;;;;;3.23;45.28;100067.75;4901437;28;96994;-89
2022/04/03 03:44:55;;;;;;;6.63;3.10;;;;;;;3.24;45.20;100074.66;4899937;28;101261;-89
2022/04/03 03:47:21;;;;;;;11.57;3.10;;;;;;;3.06;45.32;100054.06;4900800;28;98292;-89
2022/04/03 03:49:46;;;;;;;10.13;3.43;;;;;;;3.21;45.59;100077.28;4899958;28;96763;-89
2022/04/03 03:52:12;;;;;;;5.90;2.77;;;;;;;3.10;45.52;100061.78;4907545;28;96869;-89
2022/04/03 03:54:38;;;;;;;7.03;3.20;;;;;;;3.00;45.89;100064.50;4919501;28;100796;-90
2022/04/03 03:57:03;;;;;;;7.60;2.93;;;;;;;3.20;46.05;100088.53;4905992;28;101091;-89
2022/04/03 03:59:29;;;;;;;5.90;3.40;;;;;;;2.99;46.02;100054.97;4919284;28;96811;-89
2022/04/03 04:01:55;;;;;;;6.53;2.97;;;;;;;3.10;46.39;100090.31;4919592;28;96990;-88
2022/04/03 04:04:20;;;;;;;8.73;3.47;;;;;;;3.06;46.34;100085.19;4918888;28;101507;-89
2022/04/03 04:06:48;;;;;;;6.47;3.23;;;;;;;3.11;46.19;100092.06;4919405;28;100324;-89
2022/04/03 04:09:13;;;;;;;8.17;3.53;;;;;;;3.08;46.64;100101.56;4918801;28;97126;-89
2022/04/03 04:11:39;;;;;;;10.13;3.13;;;;;;;2.97;46.61;100080.94;4919180;28;97397;-90
2022/04/03 04:14:04;;;;;;;7.77;3.10;;;;;;;3.07;46.48;100103.31;4936263;28;98502;-89
2022/04/03 04:16:30;;;;;;;8.57;2.60;;;;;;;2.95;46.84;100095.63;4914093;28;100592;-90
2022/04/03 04:18:55;;;;;;;8.20;3.27;;;;;;;3.04;47.04;100113.72;4935009;28;96768;-89
2022/04/03 04:21:21;;;;;;;9.13;3.40;;;;;;;2.90;47.14;100087.00;4919319;28;96988;-90
2022/04/03 04:23:46;;;;;;;8.33;3.10;;;;;;;3.04;47.09;100118.91;4902872;28;99613;-90
2022/04/03 04:26:13;;;;;;;9.23;2.90;;;;;;;3.06;47.18;100124.94;4919029;28;100525;-89
2022/04/03 04:28:39;;;;;;;9.00;3.43;;;;;;;2.93;47.73;100103.41;4915855;28;97633;-91
2022/04/03 04:31:05;;;;;;;7.70;3.67;;;;;;;2.97;47.53;100112.03;4933697;28;96932;-89
2022/04/03 04:33:30;;;;;;;9.03;2.80;;;;;;;2.90;47.65;100115.53;4935119;28;98100;-89
2022/04/03 04:35:56;;;;;;;9.23;3.10;;;;;;;2.97;47.74;100137.09;4918380;28;100308;-89
2022/04/03 04:38:21;;;;;;;5.97;3.10;;;;;;;2.83;47.94;100119.91;4926996;28;96857;-89
2022/04/03 04:40:47;;;;;;;5.63;2.80;;;;;;;2.86;47.91;100126.81;4922425;28;97449;-90
2022/04/03 04:43:12;;;;;;;6.20;3.17;;;;;;;2.64;48.11;100081.97;4919093;28;100461;-89
2022/04/03 04:45:38;;;;;;;6.47;3.10;;;;;;;2.99;48.84;100136.22;4917446;28;101204;-89
2022/04/03 04:48:04;;;;;;;5.87;2.53;;;;;;;2.71;48.51;100099.22;4915375;28;96849;-89
2022/04/03 04:50:31;;;;;;;5.87;2.73;;;;;;;3.01;48.36;100155.22;4911701;28;96811;-90
2022/04/03 04:52:57;;;;;;;5.73;2.90;;;;;;;3.00;48.56;100157.84;4935061;28;98011;-89
2022/04/03 04:55:23;;;;;;;10.47;3.33;;;;;;;2.99;48.63;100150.91;4918627;28;101208;-89
2022/04/03 04:57:54;;;;;;;7.47;3.13;;;;;;;2.91;48.71;100143.19;4902369;28;96800;-89
2022/04/03 05:00:21;;;;;;;6.77;2.90;;;;;;;2.99;48.63;100156.09;4926519;28;96873;-89
2022/04/03 05:02:47;;;;;;;5.27;2.90;;;;;;;3.03;48.95;100157.84;4918062;28;100054;-91
2022/04/03 05:05:14;;;;;;;7.10;3.00;;;;;;;3.01;48.72;100152.63;4934461;28;100881;-89
2022/04/03 05:07:40;;;;;;;7.77;3.20;;;;;;;3.06;48.74;100161.25;4918842;28;96799;-89
2022/04/03 05:10:07;;;;;;;6.30;2.83;;;;;;;3.05;48.86;100169.03;4918100;28;96862;-89
2022/04/03 05:12:34;;;;;;;7.37;3.70;;;;;;;3.03;48.51;100153.50;4910469;28;101680;-89
2022/04/03 05:15:00;;;;;;;6.20;3.10;;;;;;;3.08;49.04;100167.28;4917883;28;101261;-89
2022/04/03 05:17:26;;;;;;;9.73;2.73;;;;;;;2.95;48.84;100161.31;4935608;28;98142;-90
2022/04/03 05:19:53;;;;;;;9.70;3.73;;;;;;;3.10;48.65;100183.69;4927200;28;96871;-89
2022/04/03 05:22:23;;;;;;;4.70;2.40;;;;;;;2.77;49.04;100127.72;4918123;28;100196;-89
2022/04/03 05:24:50;;;;;;;8.97;3.03;;;;;;;2.98;49.50;100170.81;4921375;28;100511;-89
2022/04/03 05:27:15;;;;;;;6.27;2.83;;;;;;;3.06;48.79;100186.34;4918098;28;96834;-88
2022/04/03 05:29:41;;;;;;;6.17;2.60;;;;;;;3.05;48.97;100192.38;4936946;28;97607;-89
2022/04/03 05:32:07;;;;;;;9.30;3.10;;;;;;;3.05;49.16;100192.38;4906868;28;100665;-89
2022/04/03 05:34:32;;;;;;;6.10;2.83;;;;;;;2.68;49.34;100133.81;4917871;28;98270;-88
2022/04/03 05:36:58;;;;;;;6.57;3.30;;;;;;;3.07;49.32;100188.91;4902257;28;96773;-90
2022/04/03 05:39:24;;;;;;;5.70;2.50;;;;;;;3.11;49.05;100198.41;4917769;28;96899;-89
2022/04/03 05:41:53;;;;;;;8.63;3.10;;;;;;;3.03;49.14;100173.38;4915205;28;98466;-89
2022/04/03 05:44:19;;;;;;;4.30;2.83;;;;;;;3.18;49.06;100204.41;4918239;28;101165;-89
2022/04/03 05:46:44;;;;;;;6.40;2.57;;;;;;;3.18;49.32;100197.50;4944969;28;96744;-89
2022/04/03 05:49:10;;;;;;;7.57;2.73;;;;;;;3.10;49.11;100185.44;4919712;28;96796;-89
2022/04/03 05:51:35;;;;;;;5.30;2.63;;;;;;;2.99;48.81;100162.16;4917585;28;101761;-90
2022/04/03 05:54:01;;;;;;;7.33;3.40;;;;;;;3.37;48.87;100210.34;4927557;28;99676;-89
2022/04/03 05:56:27;;;;;;;7.47;3.47;;;;;;;3.32;48.75;100201.75;4898148;28;96797;-90
2022/04/03 05:58:54;;;;;;;7.23;3.30;;;;;;;3.28;49.06;100205.22;4898406;28;96844;-89
2022/04/03 06:01:20;;;;;;;10.13;3.03;;;;;;;3.24;48.75;100198.34;4901001;28;101207;-90
2022/04/03 06:03:45;;;;;;;7.07;3.20;;;;;;;3.25;48.80;100200.91;4902004;28;100025;-89
2022/04/03 06:06:11;;;;;;;10.53;3.00;;;;;;;3.31;49.06;100219.03;4902570;28;96565;-89
2022/04/03 06:08:36;;;;;;;7.73;3.10;;;;;;;3.33;48.84;100219.03;4903099;28;96689;-89
2022/04/03 06:11:03;;;;;;;5.20;2.43;;;;;;;3.21;48.87;100200.94;4915219;28;101705;-89
2022/04/03 06:13:28;;;;;;;8.00;3.30;;;;;;;3.22;48.62;100210.44;4938851;28;98175;-89
2022/04/03 06:15:54;;;;;;;5.77;2.57;;;;;;;3.32;48.86;100228.56;4921955;28;97805;-90
2022/04/03 06:18:20;;;;;;;5.73;3.03;;;;;;;3.35;48.97;100225.94;4923948;28;96830;-89
2022/04/03 06:20:46;;;;;;;6.27;3.27;;;;;;;3.19;48.78;100193.16;4924241;28;98625;-90
2022/04/03 06:23:12;;;;;;;6.03;3.10;;;;;;;3.35;49.04;100225.94;4927759;28;98294;-89
2022/04/03 06:25:38;;;;;;;7.00;3.20;;;;;;;3.53;49.13;100242.25;4922548;28;96800;-89
2022/04/03 06:28:04;;;;;;;5.57;3.17;;;;;;;3.46;48.73;100223.28;4920942;28;96965;-89
2022/04/03 06:30:29;;;;;;;8.00;3.33;;;;;;;3.40;48.72;100224.19;4904676;28;100956;-89
2022/04/03 06:32:55;;;;;;;6.43;3.23;;;;;;;3.48;48.84;100226.72;4921278;28;101381;-89
2022/04/03 06:35:20;;;;;;;7.47;3.00;;;;;;;3.30;48.40;100196.56;4921083;28;97206;-89
2022/04/03 06:37:46;;;;;;;6.37;2.70;;;;;;;3.68;48.38;100252.53;4914461;28;96844;-89
2022/04/03 06:40:13;;;;;;;7.37;2.93;;;;;;;3.72;48.05;100250.78;4924259;28;100816;-89
2022/04/03 06:42:40;;;;;;;8.77;2.83;;;;;;;3.68;48.06;100226.56;4913493;28;100053;-90
2022/04/03 06:45:06;;;;;;;6.17;2.60;;;;;;;4.11;48.32;100252.22;4920116;28;97437;-90
2022/04/03 06:47:32;;;;;;;4.50;2.70;;;;;;;4.40;48.64;100249.34;4917711;28;97348;-90
2022/04/03 06:49:58;;;;;;;5.83;2.70;;;;;;;4.69;47.81;100249.03;4920043;28;101689;-90
2022/04/03 06:52:23;;;;;;;7.57;3.23;;;;;;;5.10;47.01;100252.03;4925827;28;97903;-89
2022/04/03 06:54:49;;;;;;;6.40;3.27;;;;;;;5.39;46.46;100255.09;4934233;28;97340;-90
2022/04/03 06:57:15;;;;;;;7.77;3.50;;;;;;;5.58;45.67;100232.25;4918331;28;96830;-89
2022/04/03 06:59:42;;;;;;;7.00;2.83;;;;;;;5.71;45.36;100219.91;4920199;28;98097;-91
2022/04/03 07:02:08;;;;;;;4.93;2.47;;;;;;;6.27;44.88;100254.59;4936538;28;101076;-89
2022/04/03 07:04:36;;;;;;;6.60;2.90;;;;;;;6.21;44.04;100189.56;4918916;28;97144;-89
2022/04/03 07:07:03;;;;;;;8.90;3.23;;;;;;;6.68;43.70;100211.25;4923412;28;97034;-89
2022/04/03 07:09:28;;;;;;;3.93;2.23;;;;;;;6.87;42.63;100184.81;4927163;28;101692;-89
2022/04/03 07:11:54;;;;;;;5.33;2.93;;;;;;;7.17;41.69;100184.13;4903538;28;101372;-90
2022/04/03 07:14:20;;;;;;;7.47;3.43;;;;;;;7.87;41.47;100248.69;4885040;28;96891;-88
2022/04/03 07:16:45;;;;;;;6.13;2.67;;;;;;;8.06;40.36;100230.81;4884787;28;96915;-90
2022/04/03 07:19:11;;;;;;;5.53;2.70;;;;;;;8.30;40.10;100218.88;4916642;28;101766;-88
2022/04/03 07:21:37;;;;;;;7.73;2.60;;;;;;;8.68;39.60;100243.19;4917470;28;101115;-90
2022/04/03 07:24:04;;;;;;;5.13;2.40;;;;;;;8.88;38.95;100259.19;4934202;28;97663;-88
2022/04/03 07:26:31;;;;;;;5.20;2.57;;;;;;;8.82;38.47;100259.34;4948097;28;96822;-89
2022/04/03 07:28:56;;;;;;;4.47;2.33;;;;;;;8.62;38.11;100267.75;4912730;28;100792;-86
2022/04/03 07:31:22;;;;;;;3.88;2.25;;;;;;;8.16;38.51;100248.84;4903512;28;101543;-87
2022/04/03 07:33:47;;;;;;;4.30;2.60;;;;;;;7.87;38.32;100220.81;4919835;28;96601;-86
2022/04/03 07:36:13;;;;;;;9.40;2.50;;;;;;;7.88;38.58;100271.31;4920157;28;96904;-86
2022/04/03 07:38:39;;;;;;;7.13;2.60;;;;;;;7.71;38.99;100275.19;4919414;28;103067;-87
2022/04/03 07:41:04;;;;;;;5.03;2.20;;;;;;;7.63;39.34;100273.66;4919842;28;101197;-86
2022/04/03 07:43:30;;;;;;;7.07;2.38;;;;;;;7.58;39.14;100276.38;4917083;28;97712;-86
2022/04/03 07:45:57;;;;;;;3.65;2.28;;;;;;;7.75;39.21;100236.78;4924949;28;97109;-86
2022/04/03 07:48:22;;;;;;;5.78;2.58;;;;;;;7.94;38.89;100229.34;4906883;28;100304;-86
2022/04/03 07:50:48;;;;;;;5.28;3.35;;;;;;;7.84;38.34;100239.19;4914572;28;100863;-85
2022/04/03 07:53:14;;;;;;;4.22;2.72;;;;;;;7.71;38.47;100256.06;4901212;28;97954;-86
2022/04/03 07:55:39;;;;;;;6.47;2.53;;;;;;;7.70;38.56;100291.75;4919455;28;96925;-86
2022/04/03 07:58:06;;;;;;;4.85;2.30;;;;;;;7.21;38.88;100248.47;4932275;28;100602;-85
2022/04/03 08:00:33;;;;;;;5.57;2.70;;;;;;;7.40;39.16;100288.06;4927067;28;100369;-85
2022/04/03 08:02:58;;;;;;;7.53;3.50;;;;;;;7.55;39.32;100296.47;4921033;28;96769;-86
2022/04/03 08:05:24;;;;;;;6.15;3.78;;;;;;;7.80;39.18;100294.19;4935216;28;96926;-86
2022/04/03 08:07:50;;;;;;;5.15;2.30;;;;;;;7.67;38.15;100252.63;4919001;28;100449;-86
2022/04/03 08:10:18;;;;;;;3.67;1.88;;;;;;;7.76;38.11;100256.78;4915926;28;97589;-87
2022/04/03 08:12:45;;;;;;;5.07;2.20;;;;;;;8.04;37.86;100305.81;4930763;28;96745;-88
2022/04/03 08:15:12;;;;;;;6.80;3.15;;;;;;;8.33;37.36;100292.03;4934712;28;96811;-88
2022/04/03 08:17:38;;;;;;;5.00;2.55;;;;;;;8.81;37.48;100263.75;4934612;28;100222;-88
2022/04/03 08:20:11;;;;;;;4.43;2.38;;;;;;;9.49;36.90;100283.59;4923202;28;98312;-88
2022/04/03 08:22:37;;;;;;;;;;;;;;;10.05;34.20;100284.50;4925196;28;96719;-90
2022/04/03 08:25:05;;;;;;;4.95;2.30;;;;;;;9.98;34.29;100283.84;4951282;28;96864;-87
2022/04/03 08:27:50;;;;;;;5.20;2.40;;;;;;;9.68;34.33;100291.75;4935257;28;98524;-89
2022/04/03 08:30:20;;;;;;;4.40;2.40;;;;;;;9.33;33.69;100297.19;4940629;28;98525;-88
2022/04/03 08:32:46;;;;;;;3.45;2.50;;;;;;;8.96;34.32;100300.84;4954939;28;96842;-88
2022/04/03 08:35:12;;;;;;;4.15;2.45;;;;;;;8.65;34.03;100298.22;4935158;28;96853;-89
2022/04/03 08:37:38;;;;;;;3.17;2.20;;;;;;;8.35;34.28;100304.16;4918678;28;101371;-88
2022/04/03 08:40:05;;;;;;;2.28;1.60;;;;;;;8.13;34.49;100295.13;4918342;28;101530;-88
2022/04/03 08:42:31;;;;;;;4.82;2.00;;;;;;;7.72;34.72;100263.00;4918518;28;96842;-88
2022/04/03 08:44:57;;;;;;;4.85;2.50;;;;;;;7.84;34.98;100317.59;4918298;28;97581;-89
2022/04/03 08:47:25;;;;;;;4.18;2.20;;;;;;;7.57;35.20;100292.09;4915315;28;100294;-88
2022/04/03 08:50:00;;;;;;;5.82;2.00;;;;;;;7.53;34.83;100320.00;4900127;28;96775;-88
2022/04/03 08:52:31;;;;;;;3.92;1.67;;;;;;;7.36;34.74;100301.22;4899638;28;96747;-88
2022/04/03 08:54:58;;;;;;;3.63;1.75;;;;;;;7.29;34.97;100310.09;4930081;28;97351;-86
2022/04/03 08:57:24;;;;;;;2.80;1.83;;;;;;;7.24;34.72;100303.22;4903753;28;100232;-88
2022/04/03 08:59:51;;;;;;;3.97;1.80;;;;;;;7.32;34.51;100317.84;4914569;28;100384;-88
2022/04/03 09:02:17;;;;;;;5.53;1.98;;;;;;;7.26;33.95;100317.09;4921164;28;96709;-88
2022/04/03 09:04:42;;;;;;;3.08;1.70;;;;;;;6.96;33.26;100268.97;4887850;28;96944;-88
2022/04/03 09:07:15;;;;;;;3.00;1.75;;;;;;;6.98;33.57;100288.09;4937504;28;96915;-88
2022/04/03 09:09:41;;;;;;;3.03;1.70;;;;;;;7.30;34.19;100322.25;4918293;28;97906;-88
2022/04/03 09:12:18;;;;;;;3.55;2.20;;;;;;;7.47;33.68;100291.41;4882227;28;97556;-88
2022/04/03 09:14:46;;;;;;;4.90;2.55;;;;;;;7.82;32.98;100277.53;4899090;28;97279;-88
2022/04/03 09:17:12;;;;;;;4.28;2.47;;;;;;;8.62;31.85;100317.47;4909618;28;101363;-89
2022/04/03 09:19:38;;;;;;;4.95;1.55;;;;;;;9.09;31.42;100314.47;4916567;28;101040;-88
2022/04/03 09:22:03;;;;;;;2.65;1.67;;;;;;;9.32;31.03;100279.75;4905469;28;96819;-88
2022/04/03 09:24:29;;;;;;;3.65;1.88;;;;;;;9.49;30.51;100290.59;4892457;28;96785;-88
2022/04/03 09:27:03;;;;;;;2.60;1.60;;;;;;;9.53;30.51;100315.78;4914064;28;101399;-88
2022/04/03 09:29:28;;;;;;;5.75;2.20;;;;;;;9.40;30.85;100324.94;4914693;28;101298;-88
2022/04/03 09:32:03;;;;;;;6.32;2.90;;;;;;;9.40;30.62;100323.16;4883884;28;97254;-90
2022/04/03 09:34:29;;;;;;;2.28;1.60;;;;;;;9.42;31.33;100317.88;4902621;28;96858;-87
2022/04/03 09:37:05;;;;;;;1.90;1.55;;;;;;;9.69;30.61;100295.25;4920481;28;100374;-87
2022/04/03 09:39:34;;;;;;;4.55;1.77;;;;;;;9.49;29.77;100272.25;4934959;28;97645;-88
2022/04/03 09:42:02;;;;;;;2.65;1.58;;;;;;;9.56;30.20;100302.59;4884115;28;96668;-91
2022/04/03 09:44:39;;;;;;;4.40;1.77;;;;;;;9.58;30.42;100319.16;4903855;28;96934;-88
2022/04/03 09:47:33;;;;;;;3.13;1.58;;;;;;;9.37;29.98;100306.69;4917719;28;101067;-88
2022/04/03 09:50:01;;;;;;;3.42;1.80;;;;;;;9.34;30.36;100319.84;4918604;28;98362;-87
2022/04/03 09:52:40;;;;;;;3.35;2.08;;;;;;;9.88;30.88;100322.59;4907152;28;98058;-87
2022/04/03 09:55:07;;;;;;;3.00;1.67;;;;;;;9.93;29.08;100289.22;4879262;28;96896;-88
2022/04/03 09:57:33;;;;;;;4.63;2.00;;;;;;;10.24;28.83;100292.59;4933566;28;98387;-88
2022/04/03 09:59:58;;;;;;;2.42;1.63;;;;;;;10.34;29.19;100301.94;4921401;28;98340;-87
2022/04/03 10:02:24;;;;;;;2.92;1.65;;;;;;;10.46;29.42;100301.50;4931579;28;96691;-87
2022/04/03 10:04:53;;;;;;;7.53;2.10;;;;;;;10.33;29.18;100285.34;4901940;28;98014;-87
2022/04/03 10:07:20;;;;;;;3.45;1.80;;;;;;;10.33;29.46;100318.59;4917474;28;98074;-87
2022/04/03 10:09:47;;;;;;;4.88;1.98;;;;;;;9.96;29.72;100304.00;4902740;28;101563;-87
2022/04/03 10:12:22;;;;;;;3.65;1.55;;;;;;;9.60;29.59;100311.22;4911324;28;97082;-87
2022/04/03 10:14:51;;;;;;;3.65;2.03;;;;;;;9.27;30.21;100308.69;4891371;28;97320;-87
2022/04/03 10:17:18;;;;;;;4.00;1.70;;;;;;;8.96;30.51;100282.50;4917736;28;101356;-86
2022/04/03 10:19:44;;;;;;;3.25;2.17;;;;;;;9.00;31.14;100328.69;4900971;28;100408;-88
2022/04/03 10:22:18;;;;;;;3.42;2.00;;;;;;;8.73;31.30;100306.72;4896898;28;97168;-87
2022/04/03 10:24:50;;;;;;;3.63;2.00;;;;;;;8.77;32.18;100332.75;4889464;28;97194;-87
2022/04/03 10:27:19;;;;;;;3.67;2.20;;;;;;;8.48;32.14;100307.34;4913180;28;100428;-87
2022/04/03 10:29:47;;;;;;;4.40;2.30;;;;;;;8.55;32.53;100334.22;4921004;28;101791;-88
2022/04/03 10:32:30;;;;;;;3.85;2.15;;;;;;;8.43;33.21;100330.16;4907670;28;96724;-88
2022/04/03 10:35:09;;;;;;;3.55;1.95;;;;;;;8.34;33.88;100343.44;4893053;28;97342;-88
2022/04/03 10:37:37;;;;;;;3.72;1.95;;;;;;;8.33;34.18;100342.56;4886221;28;99963;-88
2022/04/03 10:40:06;;;;;;;6.68;2.85;;;;;;;8.42;34.78;100338.91;4900898;28;101280;-89
2022/04/03 10:42:32;;;;;;;5.85;2.50;;;;;;;8.44;34.63;100333.66;4908075;28;97454;-87
2022/04/03 10:45:13;;;;;;;6.13;2.25;;;;;;;8.25;34.71;100307.03;4917326;28;96750;-87
2022/04/03 10:47:40;;;;;;;3.28;1.90;;;;;;;8.41;34.45;100331.97;4936152;28;98225;-87
2022/04/03 10:50:07;;;;;;;3.15;1.60;;;;;;;8.41;33.14;100329.34;4900264;28;101498;-88
2022/04/03 10:52:36;;;;;;;4.90;1.52;;;;;;;8.45;33.55;100311.81;4920114;28;97325;-87
2022/04/03 10:55:09;;;;;;;2.55;1.40;;;;;;;8.54;32.93;100312.44;4919871;28;96791;-87
2022/04/03 10:57:41;;;;;;;6.18;1.77;;;;;;;8.54;33.00;100301.09;4919856;28;101302;-89
2022/04/03 11:00:12;;;;;;;3.22;1.63;;;;;;;8.66;33.00;100323.47;4936215;28;98270;-87
2022/04/03 11:02:42;;;;;;;5.18;1.75;;;;;;;8.57;32.72;100324.56;4961616;28;96724;-87
2022/04/03 11:05:24;;;;;;;3.50;1.52;;;;;;;8.49;32.93;100324.75;4910864;28;96903;-86
2022/04/03 11:07:51;;;;;;;3.00;1.58;;;;;;;8.44;32.85;100321.41;4936653;28;98483;-87
2022/04/03 11:10:56;;;;;;;3.15;1.45;;;;;;;8.37;32.63;100322.41;4904010;28;99673;-87
2022/04/03 11:13:43;;;;;;;2.65;1.52;;;;;;;8.16;32.76;100327.28;4932169;28;97803;-87
2022/04/03 11:16:10;;;;;;;3.67;1.77;;;;;;;7.88;33.07;100287.00;4924468;28;97012;-87
2022/04/03 11:18:42;;;;;;;3.20;1.40;;;;;;;8.04;33.63;100335.44;4928852;28;101383;-88
2022/04/03 11:21:11;;;;;;;;;;;;;;;7.87;33.30;100333.19;4936056;28;101341;-87
2022/04/03 11:23:40;;;;;;;3.92;1.85;;;;;;;7.81;33.26;100335.94;4935351;28;96707;-88
2022/04/03 11:26:06;;;;;;;4.95;1.92;;;;;;;7.47;33.60;100273.13;4936385;28;96623;-88
2022/04/03 11:28:34;;;;;;;3.35;1.48;;;;;;;7.48;33.83;100317.50;4916712;28;98372;-87
2022/04/03 11:31:00;;;;;;;5.68;2.00;;;;;;;7.59;33.44;100324.25;4904115;28;101907;-87